Time;durP1;ratioP1;P1;durP2;ratioP2;P2;SDS_P1;SDS_P2;PMS_P1;PMS_P2;Temp;Humidity;BMP_temperature;BMP_pressure;BME280_temperature;BME280_humidity;BME280_pressure;Samples;Min_cycle;Max_cycle;Signal;HPM_P1;HPM_P2
2023/10/18 00:00:05;;;;;;;8.85;7.95;;;;;;;5.47;100.00;101103.22;5006511;28;20398;-64
2023/10/18 00:02:30;;;;;;;9.63;8.63;;;;;;;5.48;100.00;101097.25;5009092;28;20164;-64
2023/10/18 00:04:57;;;;;;;10.02;9.13;;;;;;;5.46;100.00;101086.91;5011303;28;20030;-64
2023/10/18 00:07:22;;;;;;;11.90;7.85;;;;;;;5.42;100.00;101092.66;5010927;28;20029;-64
2023/10/18 00:09:51;;;;;;;9.88;8.85;;;;;;;5.41;100.00;101091.75;5010969;28;20025;-64
2023/10/18 00:12:16;;;;;;;9.47;8.50;;;;;;;5.43;100.00;101085.84;5011145;28;20041;-64
2023/10/18 00:14:46;;;;;;;9.48;8.43;;;;;;;5.41;100.00;101080.63;5010820;28;20493;-64
2023/10/18 00:17:12;;;;;;;9.75;8.82;;;;;;;5.39;100.00;101079.63;5024008;28;20115;-64
2023/10/18 00:19:39;;;;;;;9.70;8.60;;;;;;;5.34;100.00;101070.78;5010614;28;20116;-64
2023/10/18 00:22:07;;;;;;;10.27;8.80;;;;;;;5.33;100.00;101077.59;5009273;28;20036;-64
2023/10/18 00:24:32;;;;;;;9.13;8.23;;;;;;;5.33;100.00;101079.25;4999705;28;20034;-64
2023/10/18 00:26:58;;;;;;;9.13;8.23;;;;;;;5.32;100.00;101075.84;5010159;28;20032;-64
2023/10/18 00:29:24;;;;;;;10.73;7.85;;;;;;;5.29;100.00;101073.97;5010268;28;20375;-64
2023/10/18 00:31:49;;;;;;;10.43;8.38;;;;;;;5.32;100.00;101067.22;5010729;28;20084;-64
2023/10/18 00:34:14;;;;;;;9.75;8.75;;;;;;;5.33;100.00;101072.44;5019528;28;20029;-64
2023/10/18 00:36:40;;;;;;;10.10;8.88;;;;;;;5.28;100.00;101069.63;5029400;28;20017;-64
2023/10/18 00:39:20;;;;;;;8.77;7.85;;;;;;;5.27;100.00;101072.13;5014795;28;21458;-64
2023/10/18 00:41:46;;;;;;;9.07;8.10;;;;;;;5.29;100.00;101070.50;5010697;28;20056;-64
2023/10/18 00:44:11;;;;;;;8.75;7.95;;;;;;;5.30;100.00;101074.84;5010372;28;20140;-64
2023/10/18 00:46:39;;;;;;;10.02;8.15;;;;;;;5.29;100.00;101075.63;5010125;28;20541;-64
2023/10/18 00:49:14;;;;;;;11.73;8.83;;;;;;;5.30;100.00;101072.28;5010193;28;20418;-64
2023/10/18 00:51:43;;;;;;;8.57;7.63;;;;;;;5.31;100.00;101073.19;5009985;28;20537;-64
2023/10/18 00:54:11;;;;;;;8.73;7.82;;;;;;;5.30;100.00;101072.28;4997615;28;20490;-64
2023/10/18 00:56:43;;;;;;;9.30;8.13;;;;;;;5.30;100.00;101062.00;5010263;28;20363;-64
2023/10/18 00:59:21;;;;;;;8.43;7.68;;;;;;;5.28;100.00;101053.31;5009744;28;20405;-64
2023/10/18 01:01:53;;;;;;;8.57;7.32;;;;;;;5.29;100.00;101063.69;5009691;28;20052;-64
2023/10/18 01:04:23;;;;;;;9.15;7.50;;;;;;;5.29;100.00;101055.06;5010358;28;20029;-64
2023/10/18 01:06:50;;;;;;;7.80;7.00;;;;;;;5.27;100.00;101051.56;5009889;28;20375;-64
2023/10/18 01:09:16;;;;;;;7.72;6.90;;;;;;;5.27;100.00;101047.28;5009263;28;20026;-64
2023/10/18 01:11:42;;;;;;;8.25;7.30;;;;;;;5.26;100.00;101039.50;5009672;28;20056;-64
2023/10/18 01:14:07;;;;;;;8.55;7.65;;;;;;;5.27;100.00;101041.28;5008940;28;20021;-64
2023/10/18 01:16:35;;;;;;;8.30;7.47;;;;;;;5.23;100.00;101029.03;5009158;28;20442;-64
2023/10/18 01:19:01;;;;;;;8.73;7.75;;;;;;;5.23;100.00;101024.81;5009971;28;20079;-64
2023/10/18 01:21:27;;;;;;;8.35;7.55;;;;;;;5.22;100.00;101028.16;5009473;28;20472;-64
2023/10/18 01:23:55;;;;;;;10.57;7.88;;;;;;;5.25;100.00;101023.19;5009463;28;20581;-64
2023/10/18 01:26:25;;;;;;;8.30;7.00;;;;;;;5.25;100.00;101015.47;5020054;28;20403;-64
2023/10/18 01:28:52;;;;;;;8.80;7.07;;;;;;;5.27;100.00;101010.44;5011653;28;20030;-64
2023/10/18 01:31:18;;;;;;;8.45;6.95;;;;;;;5.28;100.00;101007.94;5008987;28;20156;-65
2023/10/18 01:33:49;;;;;;;9.38;7.90;;;;;;;5.29;100.00;101003.69;5009464;28;20412;-64
2023/10/18 01:36:16;;;;;;;7.82;6.90;;;;;;;5.27;100.00;101010.44;5014640;28;20556;-64
2023/10/18 01:38:48;;;;;;;8.05;7.35;;;;;;;5.27;100.00;101002.72;5017056;28;20382;-64
2023/10/18 01:41:25;;;;;;;8.05;6.78;;;;;;;5.24;100.00;101000.84;5001402;28;20052;-64
2023/10/18 01:43:50;;;;;;;10.77;7.30;;;;;;;5.21;100.00;101000.69;5009503;28;20532;-64
2023/10/18 01:46:16;;;;;;;7.80;6.90;;;;;;;5.22;100.00;100991.28;5008525;28;20018;-64
2023/10/18 01:48:41;;;;;;;9.82;6.75;;;;;;;5.20;100.00;100988.63;5009180;28;20022;-64
2023/10/18 01:51:09;;;;;;;8.20;7.32;;;;;;;5.18;100.00;100977.38;5009098;28;20024;-64
2023/10/18 01:53:36;;;;;;;7.90;6.80;;;;;;;5.18;100.00;100977.38;5009210;28;20161;-64
2023/10/18 01:56:01;;;;;;;10.18;7.40;;;;;;;5.14;100.00;100973.78;5009152;28;20030;-64
2023/10/18 01:58:28;;;;;;;8.75;7.10;;;;;;;5.16;100.00;100966.16;5009989;28;20037;-64
2023/10/18 02:00:56;;;;;;;8.90;7.10;;;;;;;5.15;100.00;100965.25;5019399;28;20101;-64
2023/10/18 02:03:22;;;;;;;9.13;7.72;;;;;;;5.10;100.00;100955.50;5007328;28;20395;-64
2023/10/18 02:05:48;;;;;;;10.88;8.15;;;;;;;5.12;100.00;100957.38;5018853;28;20108;-64
2023/10/18 02:08:15;;;;;;;10.68;7.35;;;;;;;5.09;100.00;100957.19;5011027;28;20606;-64
2023/10/18 02:10:41;;;;;;;9.00;7.32;;;;;;;5.10;100.00;100950.38;5008852;28;20018;-64
2023/10/18 02:13:08;;;;;;;10.85;7.35;;;;;;;5.10;100.00;100950.38;5012114;28;20140;-64
2023/10/18 02:15:35;;;;;;;9.90;7.60;;;;;;;5.09;100.00;100951.19;5017798;28;20508;-64
2023/10/18 02:18:00;;;;;;;8.18;7.00;;;;;;;5.02;100.00;100953.41;5008596;28;20586;-64
2023/10/18 02:20:26;;;;;;;9.27;8.27;;;;;;;5.00;100.00;100951.56;5008105;28;20033;-64
2023/10/18 02:23:03;;;;;;;10.00;8.25;;;;;;;4.99;100.00;100950.66;5008728;28;20045;-64
2023/10/18 02:25:38;;;;;;;9.73;7.35;;;;;;;4.97;100.00;100947.13;5010166;28;20037;-64
2023/10/18 02:28:22;;;;;;;8.55;7.75;;;;;;;4.98;100.00;100941.19;5017095;28;20021;-64
2023/10/18 02:30:55;;;;;;;9.57;7.82;;;;;;;4.98;100.00;100940.31;5014802;28;20116;-64
2023/10/18 02:33:42;;;;;;;8.13;7.38;;;;;;;4.99;100.00;100939.50;5012867;28;20045;-64
2023/10/18 02:36:11;;;;;;;10.35;7.80;;;;;;;5.00;100.00;100937.00;5012295;28;20060;-64
2023/10/18 02:38:42;;;;;;;10.60;7.63;;;;;;;4.94;100.00;100931.53;5016264;28;20030;-64
2023/10/18 02:41:26;;;;;;;8.25;7.30;;;;;;;4.91;100.00;100928.81;5007295;28;20498;-64
2023/10/18 02:43:55;;;;;;;9.23;8.27;;;;;;;4.91;100.00;100929.66;5008085;28;20057;-64
2023/10/18 02:46:25;;;;;;;9.70;8.02;;;;;;;4.90;100.00;100938.19;5008415;28;20022;-64
2023/10/18 02:48:52;;;;;;;10.18;7.78;;;;;;;4.93;100.00;100927.19;5007344;28;20029;-64
2023/10/18 02:51:22;;;;;;;8.38;7.57;;;;;;;4.89;100.00;100928.69;5007928;28;20053;-64
2023/10/18 02:53:51;;;;;;;10.65;7.80;;;;;;;4.91;100.00;100923.66;5007840;28;20386;-64
2023/10/18 02:56:17;;;;;;;10.50;7.95;;;;;;;4.87;100.00;100912.34;5008328;28;20029;-64
2023/10/18 02:58:49;;;;;;;9.52;7.65;;;;;;;4.92;100.00;100915.16;5011806;28;20025;-64
2023/10/18 03:01:18;;;;;;;8.70;7.72;;;;;;;4.92;100.00;100907.44;5015358;28;20428;-64
2023/10/18 03:03:46;;;;;;;9.45;7.80;;;;;;;4.89;100.00;100908.16;5020577;28;20530;-64
2023/10/18 03:06:14;;;;;;;10.98;7.78;;;;;;;4.89;100.00;100902.16;5007985;28;20039;-64
2023/10/18 03:08:49;;;;;;;8.73;7.65;;;;;;;4.87;100.00;100901.16;4995520;28;20097;-64
2023/10/18 03:11:17;;;;;;;9.20;7.72;;;;;;;4.84;100.00;100893.31;5007891;28;20068;-64
2023/10/18 03:13:42;;;;;;;8.05;7.30;;;;;;;4.87;100.00;100893.47;5007251;28;20096;-64
2023/10/18 03:18:41;;;;;;;11.38;8.20;;;;;;;4.84;100.00;100886.47;5014108;28;20450;-64
2023/10/18 03:21:08;;;;;;;9.20;7.43;;;;;;;4.82;100.00;100882.06;5007873;28;20686;-64
2023/10/18 03:23:33;;;;;;;11.13;8.00;;;;;;;4.84;100.00;100880.47;5006928;28;20109;-64
2023/10/18 03:25:59;;;;;;;8.93;7.83;;;;;;;4.80;100.00;100882.84;5007906;28;20117;-64
2023/10/18 03:28:33;;;;;;;8.30;7.47;;;;;;;4.81;100.00;100881.16;5007348;28;20060;-64
2023/10/18 03:31:00;;;;;;;9.20;7.50;;;;;;;4.81;100.00;100881.16;5007599;28;20121;-64
2023/10/18 03:33:28;;;;;;;8.63;7.60;;;;;;;4.82;100.00;100884.63;5007752;28;20113;-64
2023/10/18 03:36:08;;;;;;;11.13;7.65;;;;;;;4.82;100.00;100877.81;5009328;28;20634;-64
2023/10/18 03:38:39;;;;;;;8.57;7.35;;;;;;;4.83;100.00;100873.53;5016191;28;20030;-64
2023/10/18 03:41:07;;;;;;;12.80;8.90;;;;;;;4.77;100.00;100859.56;5006999;28;20137;-64
2023/10/18 03:43:36;;;;;;;8.65;7.78;;;;;;;4.76;100.00;100860.38;5005924;28;20557;-64
2023/10/18 03:46:29;;;;;;;8.93;7.72;;;;;;;4.77;100.00;100859.56;5007029;28;20049;-64
2023/10/18 03:48:54;;;;;;;9.60;7.13;;;;;;;4.77;100.00;100849.28;5007149;28;20022;-64
2023/10/18 03:51:23;;;;;;;9.10;7.50;;;;;;;4.78;100.00;100838.25;5007011;28;20080;-64
2023/10/18 03:53:52;;;;;;;8.63;7.20;;;;;;;4.77;100.00;100839.03;5007424;28;20025;-64
2023/10/18 03:56:19;;;;;;;9.73;8.75;;;;;;;4.69;100.00;100835.16;5007648;28;20034;-64
2023/10/18 03:58:49;;;;;;;7.87;7.07;;;;;;;4.72;100.00;100824.16;5006978;28;20030;-64
2023/10/18 04:01:19;;;;;;;9.73;7.50;;;;;;;4.75;100.00;100822.63;5007129;28;20061;-64
2023/10/18 04:03:45;;;;;;;9.23;7.60;;;;;;;4.74;100.00;100820.88;5006868;28;20029;-64
2023/10/18 04:06:21;;;;;;;10.97;7.70;;;;;;;4.76;100.00;100823.53;5005957;28;20040;-64
2023/10/18 04:08:46;;;;;;;8.32;7.20;;;;;;;4.77;100.00;100822.72;5007863;28;20475;-64
2023/10/18 04:11:12;;;;;;;8.85;6.95;;;;;;;4.77;100.00;100820.16;5007464;28;20040;-64
2023/10/18 04:13:39;;;;;;;7.77;7.00;;;;;;;4.77;100.00;100804.75;5007439;28;20038;-64
2023/10/18 04:16:11;;;;;;;8.37;7.57;;;;;;;4.77;100.00;100810.78;5011744;28;20036;-64
2023/10/18 04:18:36;;;;;;;8.53;7.70;;;;;;;4.80;100.00;100804.94;5014703;28;20026;-64
2023/10/18 04:21:25;;;;;;;9.87;7.33;;;;;;;4.78;100.00;100810.00;5019612;28;20033;-64
2023/10/18 04:23:53;;;;;;;8.05;7.18;;;;;;;4.77;100.00;100803.06;5006796;28;20328;-64
2023/10/18 04:26:18;;;;;;;9.23;7.10;;;;;;;4.80;100.00;100798.09;5007869;28;20112;-64
2023/10/18 04:28:45;;;;;;;7.75;6.82;;;;;;;4.78;100.00;100794.59;5006636;28;20564;-64
2023/10/18 04:31:14;;;;;;;7.70;6.80;;;;;;;4.79;100.00;100790.31;5007154;28;20296;-64
2023/10/18 04:33:43;;;;;;;8.03;6.73;;;;;;;4.79;100.00;100786.06;5007097;28;20030;-64
2023/10/18 04:36:11;;;;;;;8.30;7.35;;;;;;;4.79;100.00;100782.63;5003935;28;20381;-64
2023/10/18 04:38:42;;;;;;;9.35;7.90;;;;;;;4.83;100.00;100783.66;5014761;28;20497;-64
2023/10/18 04:41:08;;;;;;;8.83;7.97;;;;;;;4.84;100.00;100775.19;5011970;28;20061;-64
2023/10/18 04:43:34;;;;;;;10.93;7.20;;;;;;;4.83;100.00;100776.84;5026424;28;20037;-64
2023/10/18 04:46:04;;;;;;;8.40;6.85;;;;;;;4.84;100.00;100778.59;5007496;28;20104;-64
2023/10/18 04:51:26;;;;;;;7.45;6.75;;;;;;;4.81;100.00;100765.59;5000218;28;20041;-64
2023/10/18 04:54:03;;;;;;;11.25;7.80;;;;;;;4.80;100.00;100761.28;5010663;28;20037;-64
2023/10/18 04:56:34;;;;;;;8.10;7.25;;;;;;;4.82;100.00;100759.69;5010155;28;20026;-64
2023/10/18 04:59:11;;;;;;;10.00;7.43;;;;;;;4.82;100.00;100754.56;4998206;28;20080;-64
2023/10/18 05:04:24;;;;;;;9.70;7.93;;;;;;;4.83;100.00;100750.28;5012806;28;20476;-64
2023/10/18 05:06:54;;;;;;;8.30;6.80;;;;;;;4.84;100.00;100760.63;5015507;28;20026;-64
2023/10/18 05:17:26;;;;;;;9.10;8.00;;;;;;;4.82;100.00;100739.16;5018708;28;20030;-64
2023/10/18 05:19:55;;;;;;;9.00;6.57;;;;;;;4.84;100.00;100731.53;5005845;28;20548;-64
2023/10/18 05:22:23;;;;;;;10.63;7.60;;;;;;;4.84;100.00;100731.53;5007195;28;20033;-64
2023/10/18 05:24:56;;;;;;;10.90;7.93;;;;;;;4.85;100.00;100728.16;5019122;28;20410;-64
2023/10/18 05:27:27;;;;;;;10.20;6.80;;;;;;;4.87;100.00;100731.69;5015743;28;20136;-64
2023/10/18 05:29:54;;;;;;;9.55;6.90;;;;;;;4.84;100.00;100726.38;5007259;28;20032;-64
2023/10/18 05:35:19;;;;;;;8.75;7.43;;;;;;;4.83;100.00;100727.16;4993447;28;20497;-64
2023/10/18 05:37:58;;;;;;;10.00;7.37;;;;;;;4.85;100.00;100723.00;5005444;28;20469;-64
2023/10/18 05:43:12;;;;;;;9.98;7.38;;;;;;;4.88;100.00;100728.28;5006847;28;20152;-64
2023/10/18 05:45:40;;;;;;;10.07;7.88;;;;;;;4.88;100.00;100718.03;5006989;28;20030;-64
2023/10/18 05:48:24;;;;;;;8.73;7.45;;;;;;;4.87;100.00;100721.41;5006354;28;20030;-64
2023/10/18 05:50:56;;;;;;;8.05;7.22;;;;;;;4.89;100.00;100717.25;5006292;28;20030;-64
2023/10/18 05:53:28;;;;;;;8.60;6.88;;;;;;;4.89;100.00;100709.53;5006623;28;20036;-64
2023/10/18 05:55:54;;;;;;;7.65;6.85;;;;;;;4.88;100.00;100707.75;5008551;28;20021;-64
2023/10/18 05:58:26;;;;;;;10.50;7.07;;;;;;;4.88;100.00;100705.19;5009080;28;20083;-64
2023/10/18 06:00:57;;;;;;;8.00;6.88;;;;;;;4.88;100.00;100700.06;5012645;28;20120;-64
2023/10/18 06:03:26;;;;;;;8.00;6.90;;;;;;;4.89;100.00;100710.41;5013486;28;20112;-64
2023/10/18 06:05:52;;;;;;;8.20;6.93;;;;;;;4.91;100.00;100693.38;5015592;28;20478;-64
2023/10/18 06:08:22;;;;;;;9.57;7.13;;;;;;;4.94;100.00;100695.25;5017832;28;20331;-64
2023/10/18 06:10:49;;;;;;;8.10;6.93;;;;;;;4.95;100.00;100693.56;5005214;28;20032;-64
2023/10/18 06:13:20;;;;;;;12.90;6.93;;;;;;;4.89;100.00;100691.56;5004519;28;20022;-64
2023/10/18 06:15:50;;;;;;;9.20;6.47;;;;;;;4.91;100.00;100693.38;5009553;28;20032;-64
2023/10/18 06:18:18;;;;;;;7.88;6.35;;;;;;;4.92;100.00;100696.84;5016605;28;20030;-64
2023/10/18 06:20:45;;;;;;;9.80;7.07;;;;;;;4.92;100.00;100679.78;5005944;28;20482;-64
2023/10/18 06:23:36;;;;;;;8.68;6.75;;;;;;;4.92;100.00;100684.00;5005816;28;20033;-64
2023/10/18 06:28:49;;;;;;;7.97;7.10;;;;;;;4.93;100.00;100675.50;5003434;28;20048;-64
2023/10/18 06:31:14;;;;;;;9.43;7.13;;;;;;;4.95;100.00;100658.47;5003226;28;20022;-64
2023/10/18 06:33:40;;;;;;;10.05;6.90;;;;;;;4.96;100.00;100659.38;5005332;28;20503;-64
2023/10/18 06:36:12;;;;;;;9.32;6.47;;;;;;;4.96;100.00;100660.28;5006261;28;20040;-64
2023/10/18 06:38:37;;;;;;;7.93;6.38;;;;;;;4.98;100.00;100658.66;5006677;28;20371;-64
2023/10/18 06:41:11;;;;;;;7.38;6.53;;;;;;;5.00;100.00;100659.59;5006554;28;20045;-64
2023/10/18 06:43:36;;;;;;;9.02;5.88;;;;;;;5.02;100.00;100667.38;5003164;28;20026;-64
2023/10/18 06:46:04;;;;;;;7.97;6.15;;;;;;;5.06;100.00;100659.03;5003086;28;20557;-64
2023/10/18 06:48:31;;;;;;;9.15;6.10;;;;;;;5.10;100.00;100657.50;5002654;28;20146;-64
2023/10/18 06:50:57;;;;;;;8.27;6.55;;;;;;;5.11;100.00;100655.03;5006636;28;20030;-64
2023/10/18 06:53:25;;;;;;;7.15;5.95;;;;;;;5.10;100.00;100647.25;5006284;28;20251;-64
2023/10/18 06:56:06;;;;;;;8.13;5.75;;;;;;;5.13;100.00;100652.53;5006604;28;20032;-64
2023/10/18 07:01:04;;;;;;;8.35;6.45;;;;;;;5.20;100.00;100649.47;5006941;28;20037;-64
2023/10/18 07:03:31;;;;;;;7.65;5.90;;;;;;;5.21;100.00;100634.94;5008494;28;20498;-64
2023/10/18 07:05:56;;;;;;;6.88;6.18;;;;;;;5.24;100.00;100645.38;5015139;28;20029;-64
2023/10/18 07:08:29;;;;;;;7.93;6.32;;;;;;;5.26;100.00;100634.38;5006774;28;20029;-64
2023/10/18 07:10:56;;;;;;;7.10;5.97;;;;;;;5.29;100.00;100637.09;5018814;28;20171;-64
2023/10/18 07:13:36;;;;;;;7.05;5.82;;;;;;;5.31;100.00;100641.44;5006783;28;20025;-64
2023/10/18 07:16:12;;;;;;;7.07;6.05;;;;;;;5.33;100.00;100634.66;5020912;28;20018;-64
2023/10/18 07:18:38;;;;;;;7.60;5.95;;;;;;;5.35;100.00;100631.38;5002119;28;20065;-64
2023/10/18 07:21:07;;;;;;;7.57;6.80;;;;;;;5.38;100.00;100628.97;5010312;28;20038;-64
2023/10/18 07:23:37;;;;;;;7.35;6.05;;;;;;;5.39;100.00;100623.03;5024277;28;20025;-64
2023/10/18 07:26:04;;;;;;;7.82;6.35;;;;;;;5.43;100.00;100634.34;5016102;28;20029;-64
2023/10/18 07:28:29;;;;;;;7.47;5.65;;;;;;;5.46;100.00;100611.38;5018378;28;20052;-64
2023/10/18 07:30:55;;;;;;;7.38;6.00;;;;;;;5.49;100.00;100614.06;5008389;28;20053;-63
2023/10/18 07:33:23;;;;;;;8.13;6.20;;;;;;;5.55;100.00;100607.47;5009169;28;20467;-64
2023/10/18 07:35:49;;;;;;;7.05;6.13;;;;;;;5.56;100.00;100602.41;5009609;28;20049;-64
2023/10/18 07:38:14;;;;;;;8.43;6.28;;;;;;;5.59;100.00;100602.56;5018406;28;20033;-64
2023/10/18 07:40:43;;;;;;;7.68;6.18;;;;;;;5.64;100.00;100595.06;5005254;28;20057;-64
2023/10/18 07:43:15;;;;;;;10.45;6.53;;;;;;;5.66;100.00;100593.47;4996097;28;20033;-64
2023/10/18 07:45:40;;;;;;;8.07;6.25;;;;;;;5.68;100.00;100589.28;5015211;28;20525;-64
2023/10/18 07:48:06;;;;;;;10.75;6.38;;;;;;;5.70;100.00;100587.63;5006644;28;20038;-64
2023/10/18 07:50:34;;;;;;;7.13;6.18;;;;;;;5.76;100.00;100587.03;5015772;28;20033;-64
2023/10/18 07:53:00;;;;;;;6.95;6.25;;;;;;;5.80;100.00;100585.50;5007332;28;20026;-64
2023/10/18 07:55:27;;;;;;;7.53;6.15;;;;;;;5.86;100.00;100575.53;5009184;28;20025;-64
2023/10/18 07:57:54;;;;;;;7.18;6.45;;;;;;;5.86;100.00;100567.81;5005930;28;20068;-64
2023/10/18 08:00:23;;;;;;;7.38;6.20;;;;;;;5.87;100.00;100572.13;5009849;28;20030;-64
2023/10/18 08:02:49;;;;;;;10.80;6.78;;;;;;;5.96;100.00;100576.81;5008391;28;20145;-64
2023/10/18 08:05:18;;;;;;;7.85;5.88;;;;;;;5.96;100.00;100572.56;5014469;28;20041;-64
2023/10/18 08:07:49;;;;;;;9.68;6.80;;;;;;;6.01;100.00;100576.22;5014503;28;20029;-63
2023/10/18 08:10:19;;;;;;;7.50;6.57;;;;;;;6.05;100.00;100573.78;5010491;28;20172;-64
2023/10/18 08:12:47;;;;;;;9.10;6.22;;;;;;;6.11;100.00;100572.44;5015734;28;20025;-64
2023/10/18 08:15:13;;;;;;;9.38;6.28;;;;;;;6.22;100.00;100574.63;5007469;28;20033;-64
2023/10/18 08:17:46;;;;;;;8.95;6.63;;;;;;;6.34;100.00;100570.03;5006678;28;20386;-64
2023/10/18 08:22:47;;;;;;;6.70;5.93;;;;;;;6.54;100.00;100562.31;5002046;28;20045;-64
2023/10/18 08:25:31;;;;;;;6.55;5.85;;;;;;;6.66;100.00;100561.06;5009745;28;20057;-64
2023/10/18 08:27:56;;;;;;;8.15;6.20;;;;;;;6.78;100.00;100560.75;5007488;28;20375;-64
2023/10/18 08:30:24;;;;;;;8.52;6.30;;;;;;;6.88;100.00;100568.03;5009451;28;20352;-64
2023/10/18 08:32:52;;;;;;;7.53;6.05;;;;;;;6.92;100.00;100574.22;5006577;28;20026;-64
2023/10/18 08:35:20;;;;;;;8.77;6.03;;;;;;;6.94;100.00;100565.72;5018452;28;20013;-64
2023/10/18 08:37:45;;;;;;;7.45;6.47;;;;;;;7.00;100.00;100556.50;5030299;28;20021;-64
2023/10/18 08:43:08;;;;;;;7.75;6.50;;;;;;;7.11;100.00;100536.31;4998033;28;20132;-64
2023/10/18 08:45:45;;;;;;;6.80;6.10;;;;;;;7.20;100.00;100531.53;5010257;28;20534;-64
2023/10/18 08:48:16;;;;;;;8.32;6.45;;;;;;;7.34;100.00;100534.69;5010650;28;20026;-64
2023/10/18 08:50:42;;;;;;;10.70;6.30;;;;;;;7.42;100.00;100524.69;5009954;28;20053;-64
2023/10/18 08:53:09;;;;;;;7.78;6.03;;;;;;;7.43;100.00;100529.91;5010276;28;20068;-64
2023/10/18 08:55:44;;;;;;;8.95;6.13;;;;;;;7.44;100.00;100531.69;5005063;28;20022;-64
2023/10/18 08:58:19;;;;;;;7.85;6.38;;;;;;;7.47;100.00;100522.28;5011431;28;20056;-64
2023/10/18 09:03:13;;;;;;;6.55;5.78;;;;;;;7.48;100.00;100518.91;5012919;28;20044;-64
2023/10/18 09:05:40;;;;;;;8.80;5.60;;;;;;;7.53;100.00;100513.09;5005841;28;20104;-64
2023/10/18 09:08:08;;;;;;;6.82;6.13;;;;;;;7.56;100.00;100513.22;5007174;28;20096;-64
2023/10/18 09:13:32;;;;;;;8.40;5.97;;;;;;;7.69;100.00;100500.81;5021447;28;20329;-64
2023/10/18 09:18:30;;;;;;;7.28;6.57;;;;;;;7.88;100.00;100488.63;5010131;28;20034;-63
2023/10/18 09:21:02;;;;;;;8.07;6.60;;;;;;;7.91;100.00;100494.78;5008402;28;20496;-64
2023/10/18 09:23:30;;;;;;;6.00;5.32;;;;;;;7.98;100.00;100490.72;5011850;28;20021;-64
2023/10/18 09:26:18;;;;;;;7.68;5.20;;;;;;;8.07;100.00;100485.00;5002215;28;20033;-63
2023/10/18 09:28:44;;;;;;;7.82;5.88;;;;;;;8.15;100.00;100474.94;5008302;28;20040;-64
2023/10/18 09:31:21;;;;;;;7.97;6.25;;;;;;;8.19;100.00;100473.34;5005991;28;20038;-63
2023/10/18 09:33:50;;;;;;;8.68;6.57;;;;;;;8.18;100.00;100467.34;5010150;28;20261;-64
2023/10/18 09:36:20;;;;;;;8.32;5.93;;;;;;;8.25;100.00;100468.41;5009447;28;20030;-63
2023/10/18 09:38:50;;;;;;;8.02;5.53;;;;;;;8.32;100.00;100482.41;5019556;28;20094;-63
2023/10/18 09:41:16;;;;;;;6.68;5.97;;;;;;;8.38;100.00;100462.84;5010986;28;20095;-64
2023/10/18 09:43:43;;;;;;;6.20;5.57;;;;;;;8.45;100.00;100468.25;5009515;28;20260;-64
2023/10/18 09:46:10;;;;;;;7.85;5.85;;;;;;;8.52;100.00;100457.31;5005533;28;20391;-63
2023/10/18 09:48:38;;;;;;;8.35;5.70;;;;;;;8.57;100.00;100450.63;5007012;28;20101;-64
2023/10/18 09:51:07;;;;;;;7.32;5.63;;;;;;;8.65;100.00;100449.16;4999758;28;20045;-64
2023/10/18 09:53:35;;;;;;;6.20;5.60;;;;;;;8.71;100.00;100445.03;5006197;28;20501;-64
2023/10/18 09:56:02;;;;;;;9.95;6.15;;;;;;;8.79;100.00;100441.00;5006936;28;20041;-64
2023/10/18 09:58:29;;;;;;;6.78;6.07;;;;;;;8.79;100.00;100433.25;5007881;28;20022;-64
2023/10/18 10:01:13;;;;;;;7.03;6.18;;;;;;;8.87;100.00;100431.78;5008912;28;20581;-63
2023/10/18 10:03:52;;;;;;;7.20;6.40;;;;;;;8.92;100.00;100410.41;5009009;28;20026;-63
2023/10/18 10:06:23;;;;;;;9.93;6.05;;;;;;;8.98;100.00;100406.28;5008335;28;20429;-64
2023/10/18 10:08:51;;;;;;;6.65;5.65;;;;;;;9.02;100.00;100417.59;5007336;28;20029;-63
2023/10/18 10:11:20;;;;;;;8.15;5.95;;;;;;;9.06;100.00;100403.97;5019135;28;20037;-64
2023/10/18 10:13:49;;;;;;;8.50;5.97;;;;;;;9.12;100.00;100398.97;5006021;28;20026;-63
2023/10/18 10:16:20;;;;;;;7.55;5.82;;;;;;;9.18;100.00;100399.97;5013213;28;20033;-64
2023/10/18 10:18:47;;;;;;;9.57;5.72;;;;;;;9.24;100.00;100389.84;5012079;28;20359;-64
2023/10/18 10:21:15;;;;;;;9.88;6.22;;;;;;;9.26;100.00;100388.19;5006093;28;20406;-64
2023/10/18 10:23:44;;;;;;;7.15;5.95;;;;;;;9.30;100.00;100382.25;5006649;28;20460;-64
2023/10/18 10:26:12;;;;;;;6.13;4.90;;;;;;;9.35;100.00;100375.50;5007808;28;20105;-64
2023/10/18 10:31:55;;;;;;;8.88;6.05;;;;;;;9.46;100.00;100359.47;5007112;28;20048;-64
2023/10/18 10:34:27;;;;;;;6.88;6.22;;;;;;;9.53;100.00;100353.63;5008302;28;20421;-66
2023/10/18 10:37:03;;;;;;;7.97;5.78;;;;;;;9.60;100.00;100347.78;5008083;28;20075;-66
2023/10/18 10:39:32;;;;;;;7.28;6.50;;;;;;;9.64;100.00;100350.47;5008150;28;20017;-66
2023/10/18 10:42:08;;;;;;;9.20;6.90;;;;;;;9.69;100.00;100348.88;5007868;28;20057;-66
2023/10/18 10:44:54;;;;;;;7.75;6.50;;;;;;;9.75;100.00;100328.31;5007882;28;20522;-66
2023/10/18 10:47:32;;;;;;;7.82;6.60;;;;;;;9.80;100.00;100334.53;5007173;28;20042;-66
2023/10/18 10:50:01;;;;;;;6.97;6.32;;;;;;;9.86;100.00;100326.03;5008489;28;20021;-66
2023/10/18 10:52:30;;;;;;;6.95;6.30;;;;;;;9.94;100.00;100323.66;5007935;28;20049;-66
2023/10/18 10:55:16;;;;;;;7.10;6.28;;;;;;;10.03;100.00;100320.44;5007712;28;20029;-66
2023/10/18 10:57:45;;;;;;;14.13;7.13;;;;;;;10.14;100.00;100315.53;5007342;28;20445;-66
2023/10/18 11:03:06;;;;;;;11.65;6.63;;;;;;;10.34;100.00;100303.09;5007806;28;20037;-66
2023/10/18 11:05:36;;;;;;;8.80;6.68;;;;;;;10.43;100.00;100294.66;5008310;28;20313;-66
2023/10/18 11:08:01;;;;;;;7.25;6.13;;;;;;;10.50;100.00;100293.13;5007889;28;20024;-66
2023/10/18 11:10:28;;;;;;;7.88;6.78;;;;;;;10.55;100.00;100289.81;5007606;28;20030;-66
2023/10/18 11:12:53;;;;;;;8.00;6.00;;;;;;;10.62;100.00;100292.53;5007901;28;20021;-66
2023/10/18 11:15:24;;;;;;;10.05;6.10;;;;;;;10.67;100.00;100272.78;5008456;28;20022;-65
2023/10/18 11:17:52;;;;;;;6.40;5.65;;;;;;;10.76;100.00;100269.50;5026232;28;20452;-65
2023/10/18 11:20:29;;;;;;;6.30;5.45;;;;;;;10.87;100.00;100277.53;5013878;28;20457;-66
2023/10/18 11:22:56;;;;;;;7.32;6.10;;;;;;;11.01;100.00;100265.75;5007925;28;20623;-65
2023/10/18 11:25:30;;;;;;;6.80;6.18;;;;;;;11.14;100.00;100255.63;5008205;28;20026;-65
2023/10/18 11:28:10;;;;;;;7.85;5.70;;;;;;;11.20;100.00;100265.25;5007303;28;20045;-66
2023/10/18 11:30:37;;;;;;;5.75;5.20;;;;;;;11.27;100.00;100255.03;5007490;28;20394;-65
2023/10/18 11:33:03;;;;;;;8.27;6.22;;;;;;;11.35;100.00;100255.16;5007731;28;20458;-66
2023/10/18 11:38:09;;;;;;;7.72;5.68;;;;;;;11.52;100.00;100236.47;4994689;28;20298;-66
2023/10/18 11:40:40;;;;;;;6.07;5.47;;;;;;;11.60;100.00;100232.28;5008310;28;20504;-65
2023/10/18 11:43:08;;;;;;;7.38;5.43;;;;;;;11.64;99.21;100230.59;5018733;28;20034;-65
2023/10/18 11:45:36;;;;;;;6.05;5.45;;;;;;;11.68;100.00;100222.03;5004848;28;20033;-66
2023/10/18 11:48:02;;;;;;;6.15;5.25;;;;;;;11.77;100.00;100221.31;4992565;28;20026;-66
2023/10/18 11:50:45;;;;;;;6.63;5.18;;;;;;;11.88;100.00;100214.59;5003451;28;20025;-65
2023/10/18 11:53:14;;;;;;;6.20;5.00;;;;;;;11.96;100.00;100204.31;5005825;28;20030;-65
2023/10/18 11:55:55;;;;;;;6.25;5.65;;;;;;;12.06;99.61;100196.69;5006531;28;20034;-65
2023/10/18 11:58:26;;;;;;;7.60;5.22;;;;;;;12.07;98.01;100191.50;5010104;28;20075;-65
2023/10/18 12:00:59;;;;;;;7.38;4.95;;;;;;;12.13;98.28;100190.78;5014111;28;20060;-65
2023/10/18 12:03:27;;;;;;;7.30;4.75;;;;;;;12.14;96.89;100179.56;5011732;28;20088;-64
2023/10/18 12:05:56;;;;;;;8.32;5.13;;;;;;;12.14;98.18;100184.75;5011098;28;20034;-65
2023/10/18 12:08:23;;;;;;;6.07;4.75;;;;;;;12.21;100.00;100170.13;5004732;28;20746;-65
2023/10/18 12:10:49;;;;;;;6.22;5.20;;;;;;;12.22;99.11;100177.94;5007689;28;20049;-64
2023/10/18 12:13:17;;;;;;;5.75;4.50;;;;;;;12.25;98.14;100164.97;5007362;28;20022;-65
2023/10/18 12:15:42;;;;;;;6.68;4.55;;;;;;;12.29;98.30;100157.22;5007723;28;20159;-65
2023/10/18 12:18:09;;;;;;;7.40;4.85;;;;;;;12.35;100.00;100146.94;5019584;28;20489;-65
2023/10/18 12:20:35;;;;;;;6.43;5.05;;;;;;;12.41;99.27;100141.81;5008449;28;20034;-65
2023/10/18 12:23:02;;;;;;;4.40;3.78;;;;;;;12.44;97.61;100141.88;5007892;28;20034;-65